createdAt,value
2019-04-22T00:00:44.968Z,15.26
2019-04-22T00:03:18.255Z,15.22
2019-04-22T00:06:13.032Z,15.41
2019-04-22T00:08:49.540Z,15.31
2019-04-22T00:11:26.005Z,15.19
2019-04-22T00:16:33.881Z,15.13
2019-04-22T00:21:40.065Z,14.90
2019-04-22T00:24:10.674Z,14.80
2019-04-22T00:26:44.014Z,14.68
2019-04-22T00:29:37.045Z,14.62
2019-04-22T00:32:19.508Z,14.55
2019-04-22T00:34:53.808Z,14.39
2019-04-22T00:37:28.921Z,14.36
2019-04-22T00:39:57.328Z,14.20
2019-04-22T00:42:36.070Z,13.99
2019-04-22T00:45:08.198Z,13.75
2019-04-22T00:52:52.514Z,13.56
2019-04-22T00:55:23.365Z,13.50
2019-04-22T00:57:46.336Z,13.24
2019-04-22T01:00:26.242Z,13.16
2019-04-22T01:03:02.762Z,13.24
2019-04-22T01:05:34.335Z,13.12
2019-04-22T01:08:06.828Z,12.96
2019-04-22T01:10:42.180Z,12.97
2019-04-22T01:13:14.153Z,13.02
2019-04-22T01:15:47.490Z,12.88
2019-04-22T01:18:15.860Z,12.99
2019-04-22T01:23:28.154Z,12.96
2019-04-22T01:25:56.797Z,12.90
2019-04-22T01:28:27.276Z,12.70
2019-04-22T01:30:53.466Z,12.44
2019-04-22T01:33:32.453Z,12.45
2019-04-22T01:36:16.891Z,12.65
2019-04-22T01:38:52.321Z,12.54
2019-04-22T01:41:32.429Z,12.42
2019-04-22T01:44:05.704Z,12.58
2019-04-22T01:46:31.558Z,12.64
2019-04-22T01:49:11.812Z,12.60
2019-04-22T01:51:54.676Z,12.64
2019-04-22T01:56:46.946Z,12.46
2019-04-22T01:59:16.818Z,12.41
2019-04-22T02:01:59.261Z,12.51
2019-04-22T02:04:31.839Z,12.56
2019-04-22T02:07:01.847Z,12.48
2019-04-22T02:09:38.004Z,12.71
2019-04-22T02:12:05.872Z,12.59
2019-04-22T02:14:45.468Z,12.46
2019-04-22T02:19:45.536Z,12.45
2019-04-22T02:22:17.644Z,12.40
2019-04-22T02:27:35.205Z,12.51
2019-04-22T02:29:51.951Z,12.57
2019-04-22T02:35:03.444Z,12.58
2019-04-22T02:37:35.831Z,12.46
2019-04-22T02:42:43.184Z,12.41
2019-04-22T02:45:23.183Z,12.44
2019-04-22T02:48:01.915Z,12.23
2019-04-22T02:50:28.827Z,12.22
2019-04-22T02:52:51.250Z,12.22
2019-04-22T02:58:01.761Z,12.11
2019-04-22T03:05:47.250Z,12.10
2019-04-22T03:08:15.106Z,12.15
2019-04-22T03:11:11.469Z,12.18
2019-04-22T03:13:29.212Z,12.07
2019-04-22T03:16:03.284Z,11.99
2019-04-22T03:18:38.299Z,12.01
2019-04-22T03:28:50.808Z,11.95
2019-04-22T03:37:20.648Z,11.78
2019-04-22T03:39:52.943Z,11.73
2019-04-22T03:42:06.811Z,11.93
2019-04-22T03:44:38.617Z,12.00
2019-04-22T03:49:49.610Z,12.01
2019-04-22T03:54:52.410Z,12.01
2019-04-22T04:02:41.406Z,11.76
2019-04-22T04:04:58.823Z,11.70
2019-04-22T04:10:37.591Z,11.59
2019-04-22T04:15:23.696Z,11.43
2019-04-22T04:17:55.050Z,11.43
2019-04-22T04:20:42.115Z,11.39
2019-04-22T04:30:42.897Z,11.55
2019-04-22T04:38:21.185Z,11.62
2019-04-22T04:41:01.934Z,11.60
2019-04-22T04:43:37.766Z,11.55
2019-04-22T04:46:10.129Z,11.65
2019-04-22T04:49:03.043Z,11.61
2019-04-22T04:51:16.265Z,11.47
2019-04-22T04:53:41.487Z,11.48
2019-04-22T04:56:34.412Z,11.31
2019-04-22T04:59:05.436Z,11.36
2019-04-22T05:06:36.702Z,11.45
2019-04-22T05:14:09.309Z,11.66
2019-04-22T05:19:16.043Z,11.86
2019-04-22T05:21:47.180Z,11.96
2019-04-22T05:26:52.401Z,12.20
2019-04-22T05:29:56.580Z,12.32
2019-04-22T05:31:56.840Z,12.47
2019-04-22T05:34:29.173Z,12.48
2019-04-22T05:37:01.234Z,12.56
2019-04-22T05:39:29.793Z,12.63
2019-04-22T05:42:08.438Z,12.66
2019-04-22T05:44:41.264Z,12.90
2019-04-22T05:47:15.270Z,12.82
2019-04-22T05:49:41.658Z,12.97
2019-04-22T05:52:17.374Z,13.03
2019-04-22T05:54:46.848Z,13.10
2019-04-22T05:57:18.030Z,13.10
2019-04-22T05:59:54.681Z,13.21
2019-04-22T06:02:30.551Z,13.29
2019-04-22T06:05:01.530Z,13.29
2019-04-22T06:07:27.905Z,13.40
2019-04-22T06:10:08.259Z,13.50
2019-04-22T06:12:32.692Z,13.61
2019-04-22T06:15:16.317Z,13.74
2019-04-22T06:17:47.313Z,13.86
2019-04-22T06:20:15.344Z,14.02
2019-04-22T06:22:58.462Z,14.06
2019-04-22T06:25:39.595Z,14.15
2019-04-22T06:28:04.897Z,14.22
2019-04-22T06:30:34.629Z,14.37
2019-04-22T06:33:09.762Z,14.43
2019-04-22T06:35:45.682Z,14.62
2019-04-22T06:40:46.550Z,14.78
2019-04-22T06:43:15.837Z,14.86
2019-04-22T06:45:43.560Z,15.08
2019-04-22T06:50:58.391Z,15.38
2019-04-22T06:53:29.703Z,15.51
2019-04-22T06:56:00.088Z,15.71
2019-04-22T06:58:34.702Z,15.72
2019-04-22T07:01:18.087Z,15.89
2019-04-22T07:03:48.935Z,15.96
2019-04-22T07:06:26.179Z,16.06
2019-04-22T07:09:17.925Z,16.20
2019-04-22T07:11:26.582Z,16.47
2019-04-22T07:14:01.134Z,16.61
2019-04-22T07:16:35.079Z,16.82
2019-04-22T07:19:09.431Z,16.94
2019-04-22T07:21:37.645Z,17.06
2019-04-22T07:24:35.712Z,17.04
2019-04-22T07:26:45.103Z,17.32
2019-04-22T07:29:23.141Z,17.45
2019-04-22T07:31:49.790Z,17.44
2019-04-22T07:36:59.916Z,17.63
2019-04-22T07:39:23.153Z,17.76
2019-04-22T07:41:59.121Z,17.87
2019-04-22T07:44:38.528Z,17.72
2019-04-22T07:47:18.550Z,17.95
2019-04-22T07:52:24.643Z,18.18
2019-04-22T07:54:58.510Z,18.30
2019-04-22T07:57:47.231Z,18.33
2019-04-22T08:00:10.669Z,18.59
2019-04-22T08:02:39.985Z,18.53
2019-04-22T08:07:39.521Z,18.81
2019-04-22T08:10:15.382Z,19.05
2019-04-22T08:15:12.671Z,19.44
2019-04-22T08:20:16.634Z,19.75
2019-04-22T08:22:54.658Z,19.64
2019-04-22T08:25:18.143Z,19.79
2019-04-22T08:27:50.548Z,20.01
2019-04-22T08:30:29.034Z,20.20
2019-04-22T08:32:54.530Z,20.25
2019-04-22T08:35:36.951Z,20.26
2019-04-22T08:40:36.380Z,20.71
2019-04-22T08:45:38.558Z,20.73
2019-04-22T08:48:12.656Z,21.02
2019-04-22T08:50:52.360Z,21.11
2019-04-22T08:53:28.609Z,20.96
2019-04-22T08:56:04.722Z,21.18
2019-04-22T08:58:46.444Z,21.57
2019-04-22T09:00:57.221Z,21.59
2019-04-22T09:03:24.282Z,21.30
2019-04-22T09:06:09.012Z,21.50
2019-04-22T09:08:34.218Z,21.69
2019-04-22T09:11:18.244Z,22.11
2019-04-22T09:13:45.428Z,21.90
2019-04-22T09:16:20.790Z,21.85
2019-04-22T09:21:21.461Z,22.05
2019-04-22T09:23:53.970Z,22.44
2019-04-22T09:26:26.516Z,22.70
2019-04-22T09:31:23.420Z,22.72
2019-04-22T09:33:53.354Z,22.56
2019-04-22T09:36:33.737Z,22.82
2019-04-22T09:38:52.832Z,23.08
2019-04-22T09:41:31.886Z,22.92
2019-04-22T09:44:02.618Z,22.78
2019-04-22T09:49:12.119Z,22.84
2019-04-22T09:51:37.183Z,22.82
2019-04-22T09:54:14.220Z,22.73
2019-04-22T09:56:43.940Z,23.56
2019-04-22T09:59:13.982Z,23.51
2019-04-22T10:01:42.166Z,23.51
2019-04-22T10:04:14.299Z,23.47
2019-04-22T10:06:59.606Z,23.29
2019-04-22T10:09:37.336Z,23.69
2019-04-22T10:12:03.652Z,23.76
2019-04-22T10:14:18.969Z,23.59
2019-04-22T10:16:49.323Z,23.41
2019-04-22T10:19:26.348Z,23.57
2019-04-22T10:24:18.990Z,24.16
2019-04-22T10:26:54.963Z,24.18
2019-04-22T10:29:24.738Z,24.28
2019-04-22T10:34:16.847Z,24.59
2019-04-22T10:36:37.873Z,24.97
2019-04-22T10:39:08.577Z,24.86
2019-04-22T10:41:38.991Z,25.25
2019-04-22T10:44:08.883Z,25.13
2019-04-22T10:46:38.416Z,25.09
2019-04-22T10:49:08.564Z,25.65
2019-04-22T10:51:40.339Z,25.53
2019-04-22T10:54:21.367Z,25.66
2019-04-22T10:56:52.790Z,25.23
2019-04-22T10:59:22.646Z,25.48
2019-04-22T11:01:52.701Z,25.78
2019-04-22T11:04:22.559Z,25.83
2019-04-22T11:06:56.379Z,25.77
2019-04-22T11:09:25.292Z,26.14
2019-04-22T11:12:02.140Z,25.92
2019-04-22T11:14:28.597Z,25.79
2019-04-22T11:17:00.449Z,26.29
2019-04-22T11:19:29.859Z,26.57
2019-04-22T11:22:07.771Z,26.48
2019-04-22T11:24:38.911Z,26.34
2019-04-22T11:27:08.382Z,26.40
2019-04-22T11:29:37.594Z,25.94
2019-04-22T11:32:08.589Z,26.20
2019-04-22T11:34:39.604Z,26.31
2019-04-22T11:37:10.210Z,26.81
2019-04-22T11:39:40.765Z,27.02
2019-04-22T11:42:10.084Z,26.94
2019-04-22T11:44:41.173Z,26.75
2019-04-22T11:47:11.485Z,26.56
2019-04-22T11:49:41.769Z,26.04
2019-04-22T11:52:14.652Z,26.67
2019-04-22T11:54:43.254Z,27.17
2019-04-22T11:57:13.288Z,26.92
2019-04-22T11:59:44.933Z,26.73
2019-04-22T12:02:16.198Z,26.54
2019-04-22T12:04:49.753Z,26.74
2019-04-22T12:07:19.078Z,26.93
2019-04-22T12:09:48.479Z,26.73
2019-04-22T12:12:18.150Z,26.59
2019-04-22T12:14:50.089Z,26.75
2019-04-22T12:17:20.017Z,27.22
2019-04-22T12:19:50.387Z,27.19
2019-04-22T12:22:20.888Z,27.68
2019-04-22T12:24:50.365Z,27.45
2019-04-22T12:27:20.909Z,27.78
2019-04-22T12:29:53.157Z,27.33
2019-04-22T12:32:23.288Z,27.31
2019-04-22T12:34:53.357Z,27.52
2019-04-22T12:37:34.198Z,27.95
2019-04-22T12:39:56.504Z,27.81
2019-04-22T12:42:27.080Z,27.67
2019-04-22T12:44:58.267Z,27.42
2019-04-22T12:47:30.547Z,27.94
2019-04-22T12:50:08.864Z,27.93
2019-04-22T12:52:40.760Z,27.72
2019-04-22T12:55:03.789Z,27.92
2019-04-22T12:57:34.651Z,28.12
2019-04-22T13:00:05.923Z,28.38
2019-04-22T13:02:36.648Z,28.58
2019-04-22T13:05:10.084Z,28.70
2019-04-22T13:07:39.984Z,28.41
2019-04-22T13:10:10.726Z,28.49
2019-04-22T13:12:42.778Z,28.18
2019-04-22T13:15:16.099Z,28.01
2019-04-22T13:18:01.049Z,28.36
2019-04-22T13:20:22.051Z,28.08
2019-04-22T13:22:54.730Z,27.98
2019-04-22T13:25:28.296Z,28.15
2019-04-22T13:28:07.105Z,28.28
2019-04-22T13:30:38.626Z,28.04
2019-04-22T13:33:10.765Z,28.04
2019-04-22T13:35:41.615Z,28.57
2019-04-22T13:38:11.163Z,28.78
2019-04-22T13:40:57.829Z,28.88
2019-04-22T13:43:13.550Z,29.09
2019-04-22T13:45:43.804Z,29.18
2019-04-22T13:48:31.148Z,28.83
2019-04-22T13:51:25.739Z,28.35
2019-04-22T13:56:08.735Z,29.28
2019-04-22T13:58:31.290Z,28.75
2019-04-22T14:00:54.284Z,29.75
2019-04-22T14:04:02.709Z,29.91
2019-04-22T14:06:34.730Z,29.13
2019-04-22T14:09:07.438Z,29.64
2019-04-22T14:11:48.903Z,28.56
2019-04-22T14:14:10.980Z,28.14
2019-04-22T14:16:42.475Z,28.11
2019-04-22T14:19:14.051Z,27.80
2019-04-22T14:21:47.210Z,27.97
2019-04-22T14:24:15.794Z,28.30
2019-04-22T14:26:58.822Z,28.28
2019-04-22T14:29:19.715Z,27.98
2019-04-22T14:32:03.837Z,28.73
2019-04-22T14:34:24.272Z,28.41
2019-04-22T14:36:53.501Z,28.42
2019-04-22T14:39:24.091Z,28.42
2019-04-22T14:42:27.025Z,28.29
2019-04-22T14:47:32.774Z,28.05
2019-04-22T14:50:10.238Z,28.09
2019-04-22T14:52:36.037Z,28.03
2019-04-22T14:54:55.443Z,27.91
2019-04-22T14:57:17.041Z,28.21
2019-04-22T14:59:46.245Z,28.64
2019-04-22T15:02:16.379Z,29.04
2019-04-22T15:04:45.954Z,28.30
2019-04-22T15:07:15.154Z,28.79
2019-04-22T15:09:44.359Z,28.17
2019-04-22T15:12:21.975Z,27.73
2019-04-22T15:14:45.803Z,27.80
2019-04-22T15:17:38.741Z,27.60
2019-04-22T15:20:23.755Z,27.85
2019-04-22T15:22:54.748Z,27.90
2019-04-22T15:25:24.375Z,27.79
2019-04-22T15:27:55.219Z,28.69
2019-04-22T15:30:25.497Z,27.70
2019-04-22T15:32:57.166Z,27.51
2019-04-22T15:35:29.095Z,27.85
2019-04-22T15:37:59.245Z,27.75
2019-04-22T15:40:31.058Z,28.29
2019-04-22T15:43:04.715Z,28.27
2019-04-22T15:45:34.923Z,28.39
2019-04-22T15:48:04.386Z,27.69
2019-04-22T15:50:35.050Z,27.69
2019-04-22T15:53:05.694Z,27.07
2019-04-22T15:55:36.728Z,27.31
2019-04-22T15:58:10.167Z,27.45
2019-04-22T16:00:51.837Z,28.31
2019-04-22T16:03:12.777Z,28.32
2019-04-22T16:05:44.110Z,27.05
2019-04-22T16:08:15.150Z,27.53
2019-04-22T16:10:46.018Z,27.39
2019-04-22T16:13:22.321Z,27.02
2019-04-22T16:15:46.758Z,27.17
2019-04-22T16:18:16.099Z,27.30
2019-04-22T16:20:46.146Z,28.21
2019-04-22T16:23:24.666Z,28.10
2019-04-22T16:25:55.957Z,26.79
2019-04-22T16:28:29.320Z,26.89
2019-04-22T16:30:59.702Z,26.63
2019-04-22T16:33:29.056Z,27.44
2019-04-22T16:35:58.778Z,26.81
2019-04-22T16:38:28.926Z,27.00
2019-04-22T16:40:58.839Z,27.07
2019-04-22T16:43:28.805Z,26.19
2019-04-22T16:45:58.107Z,26.30
2019-04-22T16:48:27.498Z,25.90
2019-04-22T16:50:58.336Z,25.02
2019-04-22T16:53:29.359Z,25.16
2019-04-22T16:55:59.203Z,25.08
2019-04-22T16:58:28.797Z,24.53
2019-04-22T17:00:58.802Z,24.75
2019-04-22T17:03:47.271Z,24.38
2019-04-22T17:06:25.858Z,24.77
2019-04-22T17:08:55.189Z,25.00
2019-04-22T17:11:25.584Z,25.06
2019-04-22T17:13:59.225Z,24.94
2019-04-22T17:16:28.572Z,25.32
2019-04-22T17:18:58.496Z,25.39
2019-04-22T17:21:28.137Z,24.82
2019-04-22T17:23:57.609Z,23.87
2019-04-22T17:26:28.513Z,24.03
2019-04-22T17:29:01.224Z,23.58
2019-04-22T17:31:29.101Z,23.68
2019-04-22T17:33:59.012Z,23.30
2019-04-22T17:36:30.010Z,23.41
2019-04-22T17:39:15.948Z,23.18
2019-04-22T17:41:50.676Z,22.25
2019-04-22T17:44:40.041Z,22.06
2019-04-22T17:47:25.888Z,21.88
2019-04-22T17:50:10.499Z,22.03
2019-04-22T17:52:37.555Z,21.48
2019-04-22T17:55:00.817Z,21.33
2019-04-22T17:57:34.400Z,22.03
2019-04-22T18:00:06.460Z,21.85
2019-04-22T18:02:35.718Z,21.84
2019-04-22T18:04:56.251Z,21.66
2019-04-22T18:07:57.354Z,21.48
2019-04-22T18:12:50.170Z,20.49
2019-04-22T18:15:26.997Z,20.53
2019-04-22T18:18:01.015Z,20.35
2019-04-22T18:20:27.213Z,20.09
2019-04-22T18:22:54.455Z,19.88
2019-04-22T18:25:34.170Z,19.88
2019-04-22T18:28:17.278Z,19.67
2019-04-22T18:30:38.715Z,19.66
2019-04-22T18:33:18.023Z,19.51
2019-04-22T18:35:44.553Z,19.62
2019-04-22T18:38:33.309Z,19.15
2019-04-22T18:40:53.468Z,19.22
2019-04-22T18:43:27.650Z,19.19
2019-04-22T18:46:05.370Z,18.94
2019-04-22T18:48:37.773Z,18.80
2019-04-22T18:51:25.094Z,18.78
2019-04-22T18:54:18.359Z,18.68
2019-04-22T18:56:52.526Z,18.65
2019-04-22T18:59:17.459Z,18.62
2019-04-22T19:02:03.780Z,18.76
2019-04-22T19:04:31.706Z,18.37
2019-04-22T19:07:23.961Z,18.39
2019-04-22T19:09:59.369Z,18.39
2019-04-22T19:12:28.903Z,18.20
2019-04-22T19:15:01.584Z,18.23
2019-04-22T19:17:34.800Z,18.08
2019-04-22T19:20:02.430Z,18.01
2019-04-22T19:22:30.933Z,17.81
2019-04-22T19:24:54.966Z,17.82
2019-04-22T19:27:30.989Z,17.70
2019-04-22T19:30:14.080Z,17.56
2019-04-22T19:32:46.385Z,17.86
2019-04-22T19:35:18.451Z,17.59
2019-04-22T19:37:50.806Z,17.50
2019-04-22T19:40:45.821Z,17.30
2019-04-22T19:43:12.155Z,17.43
2019-04-22T19:45:33.058Z,17.34
2019-04-22T19:48:14.048Z,17.20
2019-04-22T19:50:45.546Z,17.14
2019-04-22T19:53:10.567Z,16.96
2019-04-22T19:55:40.736Z,17.05
2019-04-22T19:58:15.178Z,16.87
2019-04-22T20:01:02.531Z,16.68
2019-04-22T20:03:55.917Z,16.73
2019-04-22T20:06:36.770Z,16.60
2019-04-22T20:09:09.129Z,16.59
2019-04-22T20:11:37.596Z,16.51
2019-04-22T20:14:06.243Z,16.59
2019-04-22T20:16:32.539Z,16.52
2019-04-22T20:19:12.098Z,16.42
2019-04-22T20:21:45.623Z,16.25
2019-04-22T20:24:01.579Z,16.38
2019-04-22T20:26:45.496Z,16.21
2019-04-22T20:29:21.009Z,16.35
2019-04-22T20:31:48.578Z,16.16
2019-04-22T20:34:21.961Z,16.08
2019-04-22T20:37:01.907Z,16.07
2019-04-22T20:39:27.073Z,15.91
2019-04-22T20:42:04.618Z,15.88
2019-04-22T20:44:33.538Z,15.89
2019-04-22T20:47:00.394Z,15.71
2019-04-22T20:49:36.575Z,15.58
2019-04-22T20:52:16.418Z,15.47
2019-04-22T20:54:40.687Z,15.65
2019-04-22T20:57:07.408Z,15.43
2019-04-22T20:59:47.206Z,15.53
2019-04-22T21:02:15.264Z,15.57
2019-04-22T21:04:47.735Z,15.39
2019-04-22T21:07:23.776Z,15.26
2019-04-22T21:09:58.031Z,15.19
2019-04-22T21:12:24.977Z,15.08
2019-04-22T21:15:06.816Z,15.11
2019-04-22T21:17:39.087Z,14.93
2019-04-22T21:22:46.276Z,14.94
2019-04-22T21:25:14.071Z,14.89
2019-04-22T21:27:51.046Z,14.75
2019-04-22T21:30:23.410Z,14.60
2019-04-22T21:32:54.848Z,14.67
2019-04-22T21:35:40.406Z,14.59
2019-04-22T21:38:04.566Z,14.51
2019-04-22T21:40:34.067Z,14.39
2019-04-22T21:43:04.425Z,14.32
2019-04-22T21:45:24.911Z,14.33
2019-04-22T21:48:20.034Z,14.22
2019-04-22T21:50:50.183Z,14.07
2019-04-22T21:53:19.743Z,13.97
2019-04-22T21:55:50.817Z,13.98
2019-04-22T21:58:52.577Z,14.14
2019-04-22T22:01:53.971Z,14.11
2019-04-22T22:04:23.617Z,14.20
2019-04-22T22:06:41.374Z,13.98
2019-04-22T22:09:25.182Z,13.94
2019-04-22T22:11:52.812Z,13.83
2019-04-22T22:14:27.626Z,13.97
2019-04-22T22:17:00.214Z,13.93
2019-04-22T22:19:43.528Z,13.84
2019-04-22T22:22:30.078Z,13.66
2019-04-22T22:24:45.206Z,13.80
2019-04-22T22:27:18.532Z,13.89
2019-04-22T22:30:23.665Z,13.94
2019-04-22T22:32:31.920Z,13.75
2019-04-22T22:35:03.067Z,13.93
2019-04-22T22:37:26.640Z,13.91
2019-04-22T22:39:56.633Z,13.92
2019-04-22T22:42:23.810Z,13.72
2019-04-22T22:44:58.926Z,13.95
2019-04-22T22:47:42.213Z,14.13
2019-04-22T22:50:20.123Z,14.22
2019-04-22T22:53:03.060Z,14.30
2019-04-22T22:55:21.738Z,14.10
2019-04-22T22:57:58.507Z,14.17
2019-04-22T23:00:32.211Z,14.24
2019-04-22T23:03:38.104Z,13.97
2019-04-22T23:05:50.531Z,14.03
2019-04-22T23:08:20.105Z,14.01
2019-04-22T23:11:00.718Z,14.13
2019-04-22T23:13:26.135Z,14.24
2019-04-22T23:15:50.179Z,14.16
2019-04-22T23:18:10.061Z,14.08
2019-04-22T23:20:47.003Z,14.21
2019-04-22T23:23:33.425Z,14.24
2019-04-22T23:26:17.746Z,14.03
2019-04-22T23:28:50.960Z,13.70
2019-04-22T23:31:29.488Z,13.53
2019-04-22T23:34:15.937Z,13.24
2019-04-22T23:36:55.988Z,12.97
2019-04-22T23:39:43.599Z,12.98
2019-04-22T23:42:18.934Z,13.09
2019-04-22T23:44:43.378Z,13.13
2019-04-22T23:47:14.877Z,13.04
2019-04-22T23:49:53.529Z,13.16
2019-04-22T23:52:23.868Z,13.07
2019-04-22T23:55:03.342Z,13.12
